createdAt,value
2023-04-25T00:00:29.429Z,2.83
2023-04-25T00:03:00.464Z,3.03
2023-04-25T00:05:30.568Z,2.57
2023-04-25T00:07:59.694Z,2.90
2023-04-25T00:10:27.850Z,2.60
2023-04-25T00:12:55.913Z,1.90
2023-04-25T00:15:25.289Z,2.90
2023-04-25T00:17:53.945Z,1.80
2023-04-25T00:20:24.444Z,2.20
2023-04-25T00:22:53.765Z,2.83
2023-04-25T00:25:22.044Z,2.53
2023-04-25T00:27:50.102Z,2.10
2023-04-25T00:30:18.240Z,2.40
2023-04-25T00:32:47.023Z,2.20
2023-04-25T00:35:15.214Z,3.20
2023-04-25T00:37:44.685Z,2.43
2023-04-25T00:40:13.080Z,2.80
2023-04-25T00:42:42.390Z,2.40
2023-04-25T00:45:14.759Z,2.57
2023-04-25T00:47:43.153Z,2.80
2023-04-25T00:50:14.070Z,2.40
2023-04-25T00:52:45.691Z,2.90
2023-04-25T00:55:14.873Z,2.40
2023-04-25T00:57:43.215Z,2.60
2023-04-25T01:00:12.890Z,2.30
2023-04-25T01:02:41.845Z,2.40
2023-04-25T01:05:10.980Z,3.03
2023-04-25T01:07:39.226Z,2.70
2023-04-25T01:10:10.394Z,2.20
2023-04-25T01:12:38.480Z,3.30
2023-04-25T01:15:07.498Z,3.27
2023-04-25T01:17:37.007Z,2.57
2023-04-25T01:20:06.626Z,3.60
2023-04-25T01:22:36.622Z,2.80
2023-04-25T01:25:05.101Z,2.23
2023-04-25T01:27:33.518Z,2.77
2023-04-25T01:30:02.229Z,3.17
2023-04-25T01:32:32.442Z,2.70
2023-04-25T01:35:00.546Z,3.00
2023-04-25T01:37:28.712Z,2.93
2023-04-25T01:39:58.640Z,4.63
2023-04-25T01:42:26.720Z,3.20
2023-04-25T01:44:54.962Z,2.77
2023-04-25T01:47:23.337Z,2.30
2023-04-25T01:49:51.653Z,3.77
2023-04-25T01:52:19.718Z,2.93
2023-04-25T01:54:48.229Z,3.47
2023-04-25T01:57:17.633Z,2.60
2023-04-25T01:59:46.585Z,3.10
2023-04-25T02:02:14.779Z,2.87
2023-04-25T02:04:43.071Z,3.30
2023-04-25T02:07:11.362Z,2.63
2023-04-25T02:09:39.358Z,2.53
2023-04-25T02:12:07.819Z,3.43
2023-04-25T02:14:37.195Z,3.23
2023-04-25T02:17:06.734Z,2.90
2023-04-25T02:19:34.920Z,2.60
2023-04-25T02:22:02.983Z,2.53
2023-04-25T02:24:31.162Z,3.73
2023-04-25T02:26:59.160Z,5.00
2023-04-25T02:29:27.272Z,3.10
2023-04-25T02:31:57.021Z,2.90
2023-04-25T02:34:25.170Z,1.87
2023-04-25T02:36:53.264Z,3.43
2023-04-25T02:39:23.140Z,3.30
2023-04-25T02:41:51.192Z,3.47
2023-04-25T02:44:19.232Z,2.07
2023-04-25T02:46:47.320Z,3.47
2023-04-25T02:49:16.757Z,3.40
2023-04-25T02:51:44.837Z,2.97
2023-04-25T02:54:12.972Z,3.00
2023-04-25T02:56:41.227Z,3.07
2023-04-25T02:59:09.260Z,3.07
2023-04-25T03:01:37.292Z,2.70
2023-04-25T03:04:05.488Z,3.10
2023-04-25T03:06:34.954Z,2.40
2023-04-25T03:09:03.063Z,3.17
2023-04-25T03:11:31.134Z,2.80
2023-04-25T03:13:59.266Z,2.73
2023-04-25T03:16:27.361Z,2.83
2023-04-25T03:18:55.451Z,2.57
2023-04-25T03:21:23.518Z,2.37
2023-04-25T03:23:53.068Z,3.17
2023-04-25T03:26:21.601Z,2.43
2023-04-25T03:28:49.771Z,2.57
2023-04-25T03:31:17.897Z,3.13
2023-04-25T03:33:46.081Z,3.37
2023-04-25T03:36:14.191Z,3.37
2023-04-25T03:38:42.871Z,3.13
2023-04-25T03:41:12.395Z,2.30
2023-04-25T03:43:40.429Z,2.80
2023-04-25T03:46:08.627Z,2.60
2023-04-25T03:48:37.097Z,3.80
2023-04-25T03:51:05.480Z,2.53
2023-04-25T03:53:33.550Z,3.83
2023-04-25T03:56:01.659Z,2.37
2023-04-25T03:58:31.093Z,2.57
2023-04-25T04:00:59.141Z,2.50
2023-04-25T04:03:27.439Z,2.53
2023-04-25T04:05:55.719Z,2.90
2023-04-25T04:08:23.763Z,3.23
2023-04-25T04:10:51.829Z,2.20
2023-04-25T04:13:19.838Z,2.40
2023-04-25T04:15:49.366Z,2.77
2023-04-25T04:18:17.424Z,3.20
2023-04-25T04:20:45.529Z,3.23
2023-04-25T04:23:14.074Z,2.60
2023-04-25T04:25:42.841Z,3.63
2023-04-25T04:28:12.024Z,3.27
2023-04-25T04:30:40.157Z,2.90
2023-04-25T04:33:09.733Z,2.83
2023-04-25T04:35:37.843Z,4.03
2023-04-25T04:38:05.935Z,3.60
2023-04-25T04:40:33.980Z,2.70
2023-04-25T04:43:02.029Z,2.57
2023-04-25T04:45:30.095Z,2.70
2023-04-25T04:47:58.163Z,2.93
2023-04-25T04:50:28.596Z,2.30
2023-04-25T04:52:56.729Z,2.90
2023-04-25T04:55:24.754Z,3.20
2023-04-25T04:57:52.785Z,3.37
2023-04-25T05:00:21.785Z,3.40
2023-04-25T05:02:50.214Z,2.70
2023-04-25T05:05:18.448Z,2.53
2023-04-25T05:07:47.866Z,2.80
2023-04-25T05:10:16.288Z,2.80
2023-04-25T05:12:44.359Z,3.50
2023-04-25T05:15:12.658Z,2.63
2023-04-25T05:17:41.142Z,4.03
2023-04-25T05:20:10.896Z,2.40
2023-04-25T05:22:38.990Z,2.33
2023-04-25T05:25:09.206Z,3.33
2023-04-25T05:27:37.453Z,3.40
2023-04-25T05:30:07.044Z,3.20
2023-04-25T05:32:35.178Z,3.13
2023-04-25T05:35:03.873Z,2.73
2023-04-25T05:37:33.810Z,3.43
2023-04-25T05:40:01.953Z,3.90
2023-04-25T05:42:31.346Z,2.30
2023-04-25T05:44:59.442Z,3.20
2023-04-25T05:47:27.554Z,3.30
2023-04-25T05:49:55.632Z,2.60
2023-04-25T05:52:23.688Z,2.90
2023-04-25T05:54:51.716Z,4.30
2023-04-25T05:57:24.499Z,3.60
2023-04-25T05:59:54.588Z,2.40
2023-04-25T06:02:23.508Z,3.03
2023-04-25T06:04:52.837Z,3.57
2023-04-25T06:07:21.276Z,2.50
2023-04-25T06:09:49.327Z,2.37
2023-04-25T06:12:17.523Z,3.50
2023-04-25T06:14:45.566Z,2.23
2023-04-25T06:17:14.973Z,3.47
2023-04-25T06:19:43.073Z,2.67
2023-04-25T06:22:11.121Z,2.57
2023-04-25T06:24:39.123Z,2.27
2023-04-25T06:27:07.216Z,2.67
2023-04-25T06:29:35.315Z,3.53
2023-04-25T06:32:03.407Z,2.73
2023-04-25T06:34:32.830Z,2.50
2023-04-25T06:37:00.902Z,2.40
2023-04-25T06:39:28.957Z,1.97
2023-04-25T06:41:57.069Z,2.83
2023-04-25T06:44:27.191Z,2.00
2023-04-25T06:46:55.231Z,2.27
2023-04-25T06:49:23.625Z,2.23
2023-04-25T06:51:53.102Z,3.00
2023-04-25T06:54:21.614Z,2.90
2023-04-25T06:56:49.875Z,4.10
2023-04-25T06:59:17.978Z,3.03
2023-04-25T07:01:46.411Z,3.20
2023-04-25T07:04:15.063Z,4.03
2023-04-25T07:06:44.224Z,2.80
2023-04-25T07:09:13.944Z,3.80
2023-04-25T07:11:42.041Z,4.20
2023-04-25T07:14:10.166Z,2.93
2023-04-25T07:16:38.255Z,2.77
2023-04-25T07:19:06.637Z,3.33
2023-04-25T07:21:35.201Z,2.63
2023-04-25T07:24:03.420Z,2.53
2023-04-25T07:26:32.867Z,2.63
2023-04-25T07:29:00.952Z,2.50
2023-04-25T07:31:29.808Z,3.70
2023-04-25T07:33:59.427Z,2.80
2023-04-25T07:36:29.370Z,3.80
2023-04-25T07:38:57.767Z,2.93
2023-04-25T07:41:25.825Z,2.83
2023-04-25T07:43:55.230Z,2.93
2023-04-25T07:46:23.250Z,4.40
2023-04-25T07:48:51.856Z,4.50
2023-04-25T07:51:20.900Z,5.77
2023-04-25T07:53:50.546Z,3.20
2023-04-25T07:56:18.990Z,3.83
2023-04-25T07:58:47.419Z,3.60
2023-04-25T08:01:17.569Z,4.03
2023-04-25T08:03:45.857Z,4.27
2023-04-25T08:06:14.161Z,3.20
2023-04-25T08:08:42.573Z,3.57
2023-04-25T08:11:10.584Z,3.30
2023-04-25T08:13:38.630Z,3.23
2023-04-25T08:16:06.936Z,4.17
2023-04-25T08:18:36.368Z,4.23
2023-04-25T08:21:04.859Z,4.83
2023-04-25T08:23:32.912Z,5.30
2023-04-25T08:26:00.992Z,3.80
2023-04-25T08:28:30.153Z,4.00
2023-04-25T08:30:58.294Z,3.53
2023-04-25T08:33:26.514Z,3.53
2023-04-25T08:35:55.940Z,3.57
2023-04-25T08:38:24.044Z,3.47
2023-04-25T08:40:53.392Z,2.53
2023-04-25T08:43:22.232Z,3.80
2023-04-25T08:45:50.444Z,3.33
2023-04-25T08:48:19.508Z,3.77
2023-04-25T08:50:52.700Z,3.37
2023-04-25T08:53:28.461Z,3.33
2023-04-25T08:55:58.162Z,3.60
2023-04-25T08:58:26.439Z,3.13
2023-04-25T09:00:54.835Z,3.13
2023-04-25T09:03:23.305Z,2.67
2023-04-25T09:05:52.178Z,3.10
2023-04-25T09:08:20.331Z,2.73
2023-04-25T09:10:49.745Z,2.67
2023-04-25T09:13:27.378Z,2.47
2023-04-25T09:15:57.124Z,3.13
2023-04-25T09:18:30.233Z,2.80
2023-04-25T09:21:02.985Z,2.90
2023-04-25T09:23:41.572Z,2.57
2023-04-25T09:26:11.174Z,3.20
2023-04-25T09:28:39.900Z,2.40
2023-04-25T09:31:07.951Z,3.43
2023-04-25T09:33:37.337Z,1.27
2023-04-25T09:36:07.175Z,2.50
2023-04-25T09:38:36.040Z,3.33
2023-04-25T09:41:04.135Z,3.40
2023-04-25T09:43:33.545Z,2.77
2023-04-25T09:46:02.126Z,2.10
2023-04-25T09:48:31.090Z,2.00
2023-04-25T09:51:09.649Z,2.77
2023-04-25T09:53:39.490Z,1.60
2023-04-25T09:56:08.884Z,3.33
2023-04-25T09:58:40.711Z,2.73
2023-04-25T10:01:11.106Z,2.13
2023-04-25T10:03:41.675Z,3.13
2023-04-25T10:06:12.079Z,1.67
2023-04-25T10:08:41.219Z,1.90
2023-04-25T10:11:10.540Z,2.17
2023-04-25T10:13:39.966Z,2.53
2023-04-25T10:16:08.066Z,1.37
2023-04-25T10:18:36.282Z,1.60
2023-04-25T10:21:07.384Z,1.40
2023-04-25T10:23:36.517Z,2.20
2023-04-25T10:26:04.620Z,1.67
2023-04-25T10:29:00.127Z,1.57
2023-04-25T10:31:28.399Z,1.90
2023-04-25T10:33:56.787Z,1.10
2023-04-25T10:36:28.172Z,1.60
2023-04-25T10:38:56.398Z,1.10
2023-04-25T10:41:24.769Z,1.17
2023-04-25T10:44:03.356Z,1.10
2023-04-25T10:46:32.229Z,1.13
2023-04-25T10:49:02.059Z,1.43
2023-04-25T10:51:39.990Z,1.07
2023-04-25T10:54:11.878Z,1.00
2023-04-25T10:56:41.659Z,1.43
2023-04-25T10:59:13.649Z,1.47
2023-04-25T11:01:43.122Z,1.07
2023-04-25T11:04:24.698Z,1.17
2023-04-25T11:07:20.046Z,1.23
2023-04-25T11:09:48.402Z,1.77
2023-04-25T11:12:17.366Z,1.10
2023-04-25T11:14:46.776Z,1.60
2023-04-25T11:17:14.889Z,1.03
2023-04-25T11:19:43.014Z,1.20
2023-04-25T11:22:12.742Z,0.60
2023-04-25T11:24:40.834Z,1.73
2023-04-25T11:27:08.989Z,1.10
2023-04-25T11:29:37.549Z,1.23
2023-04-25T11:32:07.265Z,1.33
2023-04-25T11:34:36.347Z,1.57
2023-04-25T11:37:05.119Z,1.00
2023-04-25T11:39:33.270Z,1.17
2023-04-25T11:42:06.004Z,0.90
2023-04-25T11:44:36.638Z,1.27
2023-04-25T11:47:06.039Z,1.00
2023-04-25T11:49:34.358Z,1.50
2023-04-25T11:52:02.418Z,1.17
2023-04-25T11:54:30.562Z,1.40
2023-04-25T11:56:58.782Z,0.90
2023-04-25T11:59:28.823Z,0.90
2023-04-25T12:01:58.697Z,1.20
2023-04-25T12:04:28.442Z,1.17
2023-04-25T12:06:57.852Z,1.10
2023-04-25T12:09:31.264Z,1.27
2023-04-25T12:12:03.702Z,1.60
2023-04-25T12:14:33.508Z,1.60
2023-04-25T12:17:03.174Z,1.37
2023-04-25T12:19:36.755Z,1.40
2023-04-25T12:22:05.738Z,1.37
2023-04-25T12:24:38.984Z,1.50
2023-04-25T12:27:09.243Z,1.50
2023-04-25T12:29:49.467Z,1.63
2023-04-25T12:32:18.744Z,1.90
2023-04-25T12:34:48.252Z,1.30
2023-04-25T12:37:16.709Z,1.60
2023-04-25T12:39:44.954Z,1.73
2023-04-25T12:42:13.820Z,2.37
2023-04-25T12:44:42.267Z,1.83
2023-04-25T12:47:10.995Z,1.93
2023-04-25T12:49:39.219Z,2.10
2023-04-25T12:52:08.625Z,2.90
2023-04-25T12:54:36.707Z,2.07
2023-04-25T12:57:04.943Z,1.50
2023-04-25T12:59:32.986Z,1.97
2023-04-25T13:02:01.061Z,2.13
2023-04-25T13:04:29.411Z,2.27
2023-04-25T13:06:57.685Z,2.63
2023-04-25T13:09:27.155Z,1.90
2023-04-25T13:11:57.227Z,2.10
2023-04-25T13:14:27.260Z,2.33
2023-04-25T13:16:55.617Z,2.30
2023-04-25T13:19:23.885Z,2.47
2023-04-25T13:21:52.136Z,2.20
2023-04-25T13:24:20.220Z,2.70
2023-04-25T13:26:49.673Z,3.07
2023-04-25T13:29:17.726Z,1.83
2023-04-25T13:31:45.773Z,2.73
2023-04-25T13:34:14.167Z,3.43
2023-04-25T13:36:42.373Z,2.13
2023-04-25T13:39:10.507Z,1.93
2023-04-25T13:41:38.594Z,1.80
2023-04-25T13:44:08.513Z,3.40
2023-04-25T13:46:46.221Z,2.43
2023-04-25T13:49:16.520Z,2.53
2023-04-25T13:51:44.956Z,3.17
2023-04-25T13:54:15.159Z,2.37
2023-04-25T13:56:46.639Z,3.20
2023-04-25T13:59:16.784Z,3.63
2023-04-25T14:01:44.885Z,3.73
2023-04-25T14:04:14.340Z,2.53
2023-04-25T14:06:42.456Z,3.87
2023-04-25T14:09:11.551Z,4.40
2023-04-25T14:11:40.192Z,4.30
2023-04-25T14:14:08.219Z,4.47
2023-04-25T14:16:39.971Z,4.90
2023-04-25T14:19:07.991Z,4.20
2023-04-25T14:21:36.167Z,4.10
2023-04-25T14:24:04.455Z,3.60
2023-04-25T14:26:32.546Z,3.87
2023-04-25T14:29:00.594Z,4.40
2023-04-25T14:31:28.732Z,4.50
2023-04-25T14:33:59.664Z,2.90
2023-04-25T14:36:28.448Z,4.13
2023-04-25T14:38:56.512Z,3.77
2023-04-25T14:41:24.586Z,4.40
2023-04-25T14:43:53.872Z,4.67
2023-04-25T14:46:23.158Z,3.77
2023-04-25T14:48:51.658Z,4.20
2023-04-25T14:51:21.163Z,4.40
2023-04-25T14:53:49.651Z,3.50
2023-04-25T14:56:17.827Z,3.03
2023-04-25T14:58:46.522Z,3.40
2023-04-25T15:01:15.061Z,3.80
2023-04-25T15:03:43.817Z,4.93
2023-04-25T15:06:12.098Z,3.30
2023-04-25T15:08:41.560Z,3.47
2023-04-25T15:11:09.619Z,3.87
2023-04-25T15:13:37.725Z,3.47
2023-04-25T15:16:07.122Z,3.13
2023-04-25T15:18:35.510Z,3.30
2023-04-25T15:21:03.684Z,4.20
2023-04-25T15:23:32.108Z,3.43
2023-04-25T15:26:01.518Z,3.23
2023-04-25T15:28:29.599Z,3.00
2023-04-25T15:30:58.452Z,2.60
2023-04-25T15:33:27.964Z,2.90
2023-04-25T15:35:56.007Z,2.90
2023-04-25T15:38:24.964Z,2.20
2023-04-25T15:40:55.576Z,2.50
2023-04-25T15:43:26.925Z,2.60
2023-04-25T15:45:55.752Z,2.67
2023-04-25T15:48:24.133Z,2.83
2023-04-25T15:50:54.229Z,3.13
2023-04-25T15:53:22.619Z,2.30
2023-04-25T15:55:51.022Z,1.93
2023-04-25T15:58:22.411Z,2.13
2023-04-25T16:00:55.662Z,2.10
2023-04-25T16:03:25.302Z,2.53
2023-04-25T16:05:54.894Z,1.90
2023-04-25T16:08:25.500Z,1.77
2023-04-25T16:10:55.074Z,1.83
2023-04-25T16:13:24.577Z,1.80
2023-04-25T16:15:55.489Z,2.03
2023-04-25T16:18:25.104Z,1.70
2023-04-25T16:20:54.700Z,2.40
2023-04-25T16:23:24.041Z,1.77
2023-04-25T16:25:54.877Z,2.00
2023-04-25T16:28:24.318Z,2.10
2023-04-25T16:30:55.166Z,2.10
2023-04-25T16:33:24.715Z,1.77
2023-04-25T16:35:54.127Z,2.77
2023-04-25T16:38:23.922Z,2.27
2023-04-25T16:40:54.459Z,2.67
2023-04-25T16:43:24.286Z,2.93
2023-04-25T16:45:55.806Z,2.67
2023-04-25T16:48:25.274Z,2.33
2023-04-25T16:50:55.051Z,2.70
2023-04-25T16:53:24.422Z,3.37
2023-04-25T16:55:53.909Z,3.53
2023-04-25T16:58:23.319Z,2.80
2023-04-25T17:00:52.760Z,2.60
2023-04-25T17:03:23.729Z,3.37
2023-04-25T17:05:56.643Z,3.07
2023-04-25T17:08:26.057Z,2.43
2023-04-25T17:10:55.529Z,2.30
2023-04-25T17:13:30.843Z,2.20
2023-04-25T17:16:01.163Z,4.63
2023-04-25T17:18:31.952Z,3.37
2023-04-25T17:21:02.046Z,2.93
2023-04-25T17:23:32.334Z,3.83
2023-04-25T17:26:02.524Z,4.27
2023-04-25T17:28:31.957Z,2.90
2023-04-25T17:31:01.485Z,3.37
2023-04-25T17:33:32.230Z,4.60
2023-04-25T17:36:01.541Z,4.40
2023-04-25T17:38:31.612Z,2.70
2023-04-25T17:41:01.132Z,3.10
2023-04-25T17:43:30.491Z,3.40
2023-04-25T17:45:59.918Z,4.10
2023-04-25T17:48:29.408Z,2.70
2023-04-25T17:51:00.558Z,4.30
2023-04-25T17:53:29.965Z,4.17
2023-04-25T17:55:59.360Z,4.50
2023-04-25T17:58:28.771Z,5.20
2023-04-25T18:00:59.852Z,4.17
2023-04-25T18:03:29.336Z,4.10
2023-04-25T18:06:02.014Z,4.20
2023-04-25T18:08:30.836Z,4.37
2023-04-25T18:11:00.456Z,3.30
2023-04-25T18:13:30.006Z,3.50
2023-04-25T18:16:01.223Z,4.00
2023-04-25T18:18:35.988Z,4.03
2023-04-25T18:21:09.275Z,4.10
2023-04-25T18:23:40.792Z,4.23
2023-04-25T18:26:12.151Z,5.57
2023-04-25T18:28:40.473Z,4.05
2023-04-25T18:31:11.900Z,4.27
2023-04-25T18:33:43.086Z,2.93
2023-04-25T18:36:15.857Z,4.60
2023-04-25T18:38:50.338Z,3.20
2023-04-25T18:44:02.455Z,5.73
2023-04-25T18:46:32.417Z,3.57
2023-04-25T18:49:04.160Z,3.07
2023-04-25T18:51:37.109Z,3.53
2023-04-25T18:54:07.931Z,3.97
2023-04-25T18:56:37.498Z,3.50
2023-04-25T18:59:07.129Z,3.43
2023-04-25T19:01:37.228Z,4.83
2023-04-25T19:04:06.793Z,4.10
2023-04-25T19:06:38.603Z,4.43
2023-04-25T19:09:10.297Z,2.57
2023-04-25T19:11:41.042Z,3.47
2023-04-25T19:14:10.678Z,2.93
2023-04-25T19:16:40.396Z,4.33
2023-04-25T19:19:10.308Z,2.80
2023-04-25T19:21:41.714Z,4.17
2023-04-25T19:24:11.525Z,3.80
2023-04-25T19:26:41.130Z,2.50
2023-04-25T19:29:12.289Z,2.90
2023-04-25T19:31:42.241Z,4.07
2023-04-25T19:34:12.188Z,4.50
2023-04-25T19:36:44.125Z,4.23
2023-04-25T19:39:13.906Z,3.50
2023-04-25T19:41:43.451Z,4.03
2023-04-25T19:44:12.913Z,3.40
2023-04-25T19:46:43.199Z,3.30
2023-04-25T19:49:12.724Z,3.27
2023-04-25T19:51:43.489Z,3.40
2023-04-25T19:54:12.761Z,3.50
2023-04-25T19:56:42.005Z,3.30
2023-04-25T19:59:11.434Z,3.70
2023-04-25T20:01:40.925Z,3.00
2023-04-25T20:04:10.689Z,2.70
2023-04-25T20:06:39.115Z,2.27
2023-04-25T20:09:09.837Z,3.00
2023-04-25T20:11:39.130Z,3.10
2023-04-25T20:14:08.460Z,3.20
2023-04-25T20:16:38.022Z,2.90
2023-04-25T20:19:07.638Z,3.00
2023-04-25T20:21:37.277Z,3.27
2023-04-25T20:24:07.534Z,2.30
2023-04-25T20:26:38.312Z,4.40
2023-04-25T20:29:09.780Z,3.37
2023-04-25T20:31:38.257Z,3.40
2023-04-25T20:34:07.568Z,4.37
2023-04-25T20:36:36.930Z,3.23
2023-04-25T20:39:07.346Z,3.07
2023-04-25T20:41:38.303Z,3.80
2023-04-25T20:44:07.792Z,2.77
2023-04-25T20:46:37.110Z,3.47
2023-04-25T20:49:06.419Z,4.17
2023-04-25T20:51:36.283Z,3.27
2023-04-25T20:54:05.579Z,3.00
2023-04-25T20:56:35.663Z,3.40
2023-04-25T20:59:05.938Z,3.23
2023-04-25T21:01:35.751Z,3.03
2023-04-25T21:04:06.156Z,3.17
2023-04-25T21:06:35.619Z,3.60
2023-04-25T21:09:04.957Z,4.07
2023-04-25T21:11:34.235Z,3.97
2023-04-25T21:14:04.045Z,2.90
2023-04-25T21:16:35.599Z,3.43
2023-04-25T21:19:04.871Z,3.23
2023-04-25T21:21:34.228Z,3.33
2023-04-25T21:24:02.577Z,2.93
2023-04-25T21:26:32.343Z,3.73
2023-04-25T21:29:01.544Z,3.37
2023-04-25T21:31:30.956Z,3.60
2023-04-25T21:34:01.789Z,3.47
2023-04-25T21:36:31.101Z,4.40
2023-04-25T21:39:00.488Z,3.77
2023-04-25T21:41:30.040Z,5.50
2023-04-25T21:43:59.546Z,3.50
2023-04-25T21:46:28.896Z,4.80
2023-04-25T21:48:57.264Z,4.70
2023-04-25T21:51:28.815Z,3.23
2023-04-25T21:54:00.576Z,2.53
2023-04-25T21:56:29.278Z,3.47
2023-04-25T21:58:57.594Z,3.83
2023-04-25T22:01:28.633Z,4.23
2023-04-25T22:03:58.207Z,2.83
2023-04-25T22:06:29.170Z,3.47
2023-04-25T22:08:57.766Z,3.10
2023-04-25T22:11:28.500Z,3.97
2023-04-25T22:13:57.703Z,2.60
2023-04-25T22:16:26.945Z,3.60
2023-04-25T22:18:55.277Z,2.80
2023-04-25T22:21:24.895Z,2.97
2023-04-25T22:23:56.658Z,4.23
2023-04-25T22:26:26.420Z,3.70
2023-04-25T22:28:55.516Z,3.47
2023-04-25T22:31:24.863Z,4.20
2023-04-25T22:33:54.058Z,3.97
2023-04-25T22:36:24.050Z,3.70
2023-04-25T22:38:53.972Z,3.60
2023-04-25T22:41:24.773Z,2.83
2023-04-25T22:43:54.485Z,2.70
2023-04-25T22:46:24.741Z,3.03
2023-04-25T22:48:53.561Z,3.03
2023-04-25T22:51:23.241Z,3.60
2023-04-25T22:53:53.308Z,3.63
2023-04-25T22:56:22.445Z,3.93
2023-04-25T22:58:52.541Z,3.80
2023-04-25T23:01:21.844Z,3.60
2023-04-25T23:03:50.888Z,3.67
2023-04-25T23:06:20.127Z,3.80
2023-04-25T23:08:48.444Z,4.77
2023-04-25T23:11:17.544Z,3.33
2023-04-25T23:13:46.655Z,3.80
2023-04-25T23:16:17.546Z,3.40
2023-04-25T23:18:46.485Z,3.93
2023-04-25T23:21:15.709Z,3.70
2023-04-25T23:23:45.434Z,4.37
2023-04-25T23:26:15.208Z,3.57
2023-04-25T23:28:45.098Z,3.97
2023-04-25T23:31:14.054Z,3.33
2023-04-25T23:33:44.372Z,2.63
2023-04-25T23:36:21.154Z,4.07
2023-04-25T23:38:50.508Z,4.00
2023-04-25T23:41:19.822Z,3.03
2023-04-25T23:43:48.923Z,4.20
2023-04-25T23:46:18.846Z,4.37
2023-04-25T23:48:49.486Z,3.27
2023-04-25T23:51:18.624Z,3.67
2023-04-25T23:53:47.592Z,3.80
2023-04-25T23:56:16.659Z,2.90
2023-04-25T23:58:46.560Z,3.60
